SVPL1: Red River at Shreveport Site 2

                                SHEF ID:       SVPL1     Red River at Shreveport Site 2
STATION TYPE:

PRECIP STAGE RIV-FLOW VOLTAGE
in ft cfs volt
Ccp-Rev Ccp-Rev Ccp-Rev Ccp-Rev
(America/Chicago)
06/18 00:00 0.00 15.97 23760 12.82
06/18 01:00 0.00 16.07 24420 12.81
06/18 02:00 0.00 16.10 24600 12.80
06/18 03:00 0.00 16.19 25140 12.80
06/18 04:00 0.00 16.23 25380 12.79
06/18 05:00 0.00 16.29 25740 12.77
06/18 06:00 0.00 16.36 26160 12.76
06/18 07:00 0.00 16.41 26460 12.80
06/18 08:00 0.00 16.42 26520 12.96
06/18 09:00 0.00 16.51 27060 13.30
06/18 10:00 0.00 16.55 27300 13.09
06/18 11:00 0.00 16.60 27600 13.06
06/18 12:00 0.00 16.54 27240 13.09
06/18 13:00 0.00 16.60 27600 13.06
06/18 14:00 0.00 16.64 27840 13.06
06/18 15:00 0.00 16.68 28080 13.06
06/18 16:00 0.00 16.70 28200 13.08
06/18 17:00 0.00 16.71 28260 13.01
06/18 18:00 0.00 16.72 28320 13.02
06/18 19:00 0.00 16.73 28380 12.90
06/18 20:00 0.00 16.74 28440 12.86
06/18 21:00 0.00 16.74 28440 12.85
06/18 22:00 0.00 16.68 28080 12.84
06/18 23:00 0.00 16.73 28380 12.83
Data processed at Mon 22Jun2026 03:24 GMT

NOTICE: If you are parsing this page

Please convert to using our Data API. Starting early 2026 we will be migrating to: https://water.usace.army.mil with modern pages rendered in JavaScript. When this migration completes you will no longer be able to scrape this page! CWMSDataAPI (CDA)

Timeseries IDs (TSIDs)

TSIDs used from left to right in the data table
SHRE.Precip-Inc.Total.1Hour.1Hour.Ccp-Rev
SHRE.Stage.Inst.1Hour.0.Ccp-Rev
SHRE.Flow.Inst.1Hour.0.Ccp-Rev
SHRE.Volt-Battery.Inst.1Hour.0.Ccp-Rev

                            

All information presented herein is the property of the government of the United States of America and may be revised or deleted at any time without prior notice. Dissemination of this information without the expressed written consent of the Public Affairs Office, Tulsa District U.S. Army Corps of Engineers is strictly prohibited. These data are gathered electronically and, as presented, have NOT undergone any form of quality control. These data are NOT guaranteed to be valid or correct.